createdAt,value
2022-12-22T00:00:41.094Z,100589.41
2022-12-22T00:11:21.206Z,100585.81
2022-12-22T00:22:01.198Z,100578.97
2022-12-22T00:32:41.382Z,100568.56
2022-12-22T00:43:21.459Z,100555.63
2022-12-22T00:54:01.450Z,100550.47
2022-12-22T01:04:41.704Z,100545.25
2022-12-22T01:15:21.796Z,100533.09
2022-12-22T01:26:02.104Z,100523.63
2022-12-22T01:36:42.189Z,100521.81
2022-12-22T01:47:41.230Z,100512.28
2022-12-22T01:58:21.317Z,100518.22
2022-12-22T02:09:03.360Z,100498.34
2022-12-22T02:19:58.748Z,100487.13
2022-12-22T02:30:38.837Z,100466.34
2022-12-22T02:41:38.707Z,100465.28
2022-12-22T02:52:24.296Z,100456.69
2022-12-22T03:03:04.509Z,100458.91
2022-12-22T03:13:44.890Z,100421.16
2022-12-22T03:24:25.325Z,100409.97
2022-12-22T03:34:46.703Z,100398.66
2022-12-22T03:45:27.694Z,100381.56
2022-12-22T03:55:49.068Z,100375.44
2022-12-22T04:06:10.415Z,100370.16
2022-12-22T04:16:33.650Z,100354.78
2022-12-22T04:26:55.049Z,100350.47
2022-12-22T04:37:17.654Z,100347.97
2022-12-22T04:47:39.402Z,100347.16
2022-12-22T04:58:00.789Z,100347.09
2022-12-22T05:08:22.132Z,100334.84
2022-12-22T05:18:44.175Z,100327.06
2022-12-22T05:29:05.567Z,100316.84
2022-12-22T05:39:26.916Z,100307.19
2022-12-22T05:49:48.257Z,100310.72
2022-12-22T06:00:12.501Z,100311.63
2022-12-22T06:10:33.902Z,100308.06
2022-12-22T06:20:55.275Z,100315.81
2022-12-22T06:31:16.734Z,100307.19
2022-12-22T06:41:56.703Z,100306.41
2022-12-22T06:52:18.081Z,100302.13
2022-12-22T07:02:39.579Z,100329.44
2022-12-22T07:13:19.014Z,100344.03
2022-12-22T07:23:41.221Z,100368.97
2022-12-22T07:34:02.579Z,100377.59
2022-12-22T07:44:24.333Z,100379.19
2022-12-22T07:54:45.684Z,100369.59
2022-12-22T08:05:07.907Z,100372.13
2022-12-22T08:15:29.389Z,100372.13
2022-12-22T08:25:55.541Z,100353.25
2022-12-22T08:36:17.110Z,100357.78
2022-12-22T08:46:38.537Z,100374.03
2022-12-22T08:56:59.941Z,100387.50
2022-12-22T09:07:21.329Z,100402.94
2022-12-22T09:17:43.610Z,100421.00
2022-12-22T09:28:07.379Z,100430.03
2022-12-22T09:38:28.843Z,100430.78
2022-12-22T09:48:50.572Z,100438.41
2022-12-22T09:59:13.368Z,100442.47
2022-12-22T10:09:52.119Z,100441.97
2022-12-22T10:20:26.606Z,100456.97
2022-12-22T10:30:48.028Z,100461.66
2022-12-22T10:41:18.077Z,100453.63
2022-12-22T10:51:40.467Z,100463.31
2022-12-22T11:02:20.763Z,100472.72
2022-12-22T11:13:02.420Z,100483.91
2022-12-22T11:23:26.919Z,100477.03
2022-12-22T11:33:51.383Z,100492.16
2022-12-22T11:44:31.253Z,100511.09
2022-12-22T11:54:55.692Z,100516.91
2022-12-22T12:05:17.050Z,100514.97
2022-12-22T12:15:40.981Z,100532.06
2022-12-22T12:26:11.638Z,100533.00
2022-12-22T12:36:51.835Z,100537.41
2022-12-22T12:47:27.045Z,100534.06
2022-12-22T12:57:49.171Z,100529.72
2022-12-22T13:08:19.719Z,100534.75
2022-12-22T13:18:50.001Z,100534.06
2022-12-22T13:29:21.702Z,100565.47
2022-12-22T13:39:43.461Z,100557.94
2022-12-22T13:50:09.684Z,100567.41
2022-12-22T14:00:31.598Z,100565.63
2022-12-22T14:10:54.296Z,100578.72
2022-12-22T14:21:15.682Z,100572.88
2022-12-22T14:31:50.521Z,100577.38
2022-12-22T14:42:13.245Z,100579.19
2022-12-22T14:52:43.840Z,100600.03
2022-12-22T15:03:25.635Z,100599.16
2022-12-22T15:13:48.115Z,100601.88
2022-12-22T15:24:15.324Z,100595.88
2022-12-22T15:34:36.815Z,100603.56
2022-12-22T15:44:58.206Z,100600.94
2022-12-22T15:55:20.051Z,100610.44
2022-12-22T16:05:41.754Z,100608.72
2022-12-22T16:16:03.318Z,100607.03
2022-12-22T16:26:24.731Z,100612.28
2022-12-22T16:36:46.139Z,100594.97
2022-12-22T16:47:15.428Z,100600.03
2022-12-22T16:57:36.783Z,100606.81
2022-12-22T17:07:58.485Z,100593.09
2022-12-22T17:18:21.474Z,100598.44
2022-12-22T17:28:43.479Z,100577.06
2022-12-22T17:39:05.055Z,100568.72
2022-12-22T17:49:26.521Z,100574.88
2022-12-22T17:59:47.885Z,100557.63
2022-12-22T18:10:29.580Z,100550.78
2022-12-22T18:21:06.058Z,100545.69
2022-12-22T18:31:29.225Z,100538.75
2022-12-22T18:41:54.160Z,100537.94
2022-12-22T18:52:17.441Z,100523.16
2022-12-22T19:02:39.052Z,100516.31
2022-12-22T19:13:02.562Z,100501.81
2022-12-22T19:23:25.361Z,100500.13
2022-12-22T19:33:46.769Z,100492.34
2022-12-22T19:44:20.317Z,100485.59
2022-12-22T19:54:41.744Z,100478.75
2022-12-22T20:05:03.370Z,100471.13
2022-12-22T20:15:24.785Z,100460.00
2022-12-22T20:25:48.283Z,100457.47
2022-12-22T20:36:16.627Z,100465.88
2022-12-22T20:46:39.223Z,100451.16
2022-12-22T20:57:00.708Z,100427.28
2022-12-22T21:07:22.087Z,100422.19
2022-12-22T21:17:46.246Z,100417.09
2022-12-22T21:28:08.829Z,100420.63
2022-12-22T21:38:32.087Z,100404.34
2022-12-22T21:48:53.497Z,100395.88
2022-12-22T21:59:15.303Z,100399.22
2022-12-22T22:09:36.688Z,100400.16
2022-12-22T22:19:58.153Z,100376.00
2022-12-22T22:30:21.047Z,100374.28
2022-12-22T22:40:43.237Z,100376.75
2022-12-22T22:51:04.795Z,100374.03
2022-12-22T23:01:26.204Z,100371.41
2022-12-22T23:11:47.560Z,100341.31
2022-12-22T23:22:08.912Z,100359.56
2022-12-22T23:32:30.258Z,100359.69
2022-12-22T23:42:56.583Z,100346.75
2022-12-22T23:53:18.488Z,100359.53
